createdAt,value
2018-12-23T00:03:29.830Z,97954.25
2018-12-23T00:08:43.371Z,97953.45
2018-12-23T00:13:54.803Z,97966.36
2018-12-23T00:19:06.320Z,97958.69
2018-12-23T00:24:02.280Z,97963.02
2018-12-23T00:26:33.444Z,97974.81
2018-12-23T00:29:06.102Z,97986.89
2018-12-23T00:31:39.060Z,97967.90
2018-12-23T00:34:11.938Z,97982.34
2018-12-23T00:36:44.764Z,97979.72
2018-12-23T00:39:17.917Z,97986.92
2018-12-23T00:41:50.786Z,97993.34
2018-12-23T00:45:17.275Z,97993.89
2018-12-23T00:47:48.600Z,98001.03
2018-12-23T00:50:21.280Z,97997.86
2018-12-23T00:52:52.680Z,98006.74
2018-12-23T00:55:25.836Z,98004.06
2018-12-23T00:57:58.718Z,97998.41
2018-12-23T01:00:31.502Z,98008.34
2018-12-23T01:03:04.440Z,98014.88
2018-12-23T01:05:37.281Z,98031.03
2018-12-23T01:08:08.878Z,98031.03
2018-12-23T01:10:41.952Z,98046.06
2018-12-23T01:13:15.043Z,98047.58
2018-12-23T01:15:48.280Z,98046.33
2018-12-23T01:18:19.635Z,98057.09
2018-12-23T01:20:52.405Z,98050.48
2018-12-23T01:23:25.415Z,98050.48
2018-12-23T01:25:58.337Z,98061.53
2018-12-23T01:28:31.297Z,98061.53
2018-12-23T01:31:04.292Z,98067.55
2018-12-23T01:33:36.076Z,98065.42
2018-12-23T01:36:09.089Z,98081.13
2018-12-23T01:38:41.798Z,98077.97
2018-12-23T01:41:14.901Z,98077.66
2018-12-23T01:43:48.778Z,98071.78
2018-12-23T01:46:21.758Z,98079.45
2018-12-23T01:48:54.330Z,98079.15
2018-12-23T01:51:27.306Z,98087.69
2018-12-23T01:53:59.013Z,98094.42
2018-12-23T01:56:31.772Z,98090.45
2018-12-23T01:59:04.950Z,98096.36
2018-12-23T02:01:37.774Z,98103.39
2018-12-23T02:04:10.719Z,98092.47
2018-12-23T02:06:43.686Z,98104.70
2018-12-23T02:09:16.522Z,98104.00
2018-12-23T02:11:49.688Z,98098.98
2018-12-23T02:14:22.716Z,98098.98
2018-12-23T02:16:55.704Z,98107.59
2018-12-23T02:19:28.390Z,98103.26
2018-12-23T02:22:00.878Z,98103.26
2018-12-23T02:24:33.608Z,98111.09
2018-12-23T02:27:06.487Z,98100.70
2018-12-23T02:29:39.291Z,98100.70
2018-12-23T02:32:10.886Z,98108.73
2018-12-23T02:34:43.890Z,98111.60
2018-12-23T02:37:17.287Z,98106.19
2018-12-23T02:39:49.115Z,98107.27
2018-12-23T02:42:22.127Z,98112.77
2018-12-23T02:44:53.881Z,98118.16
2018-12-23T02:47:27.019Z,98121.02
2018-12-23T02:50:01.286Z,98117.17
2018-12-23T02:52:32.705Z,98116.77
2018-12-23T02:55:05.901Z,98117.75
2018-12-23T02:57:38.444Z,98113.67
2018-12-23T03:00:11.807Z,98117.04
2018-12-23T03:02:44.964Z,98116.47
2018-12-23T03:05:18.772Z,98115.59
2018-12-23T03:07:51.702Z,98119.46
2018-12-23T03:10:24.721Z,98125.31
2018-12-23T03:12:57.893Z,98125.49
2018-12-23T03:15:31.146Z,98124.24
2018-12-23T03:18:04.303Z,98126.19
2018-12-23T03:20:36.970Z,98122.70
2018-12-23T03:23:10.285Z,98122.70
2018-12-23T03:25:41.832Z,98123.66
2018-12-23T03:28:14.965Z,98121.50
2018-12-23T03:31:53.304Z,98118.45
2018-12-23T03:35:03.294Z,98125.34
2018-12-23T03:37:54.792Z,98130.80
2018-12-23T03:41:06.301Z,98124.86
2018-12-23T03:44:17.812Z,98122.83
2018-12-23T03:50:39.370Z,98123.74
2018-12-23T03:53:30.933Z,98123.36
2018-12-23T03:56:22.799Z,98121.33
2018-12-23T03:59:33.954Z,98111.69
2018-12-23T04:06:02.299Z,98114.11
2018-12-23T04:09:13.952Z,98112.64
2018-12-23T04:15:36.298Z,98119.65
2018-12-23T04:18:07.315Z,98119.65
2018-12-23T04:21:17.287Z,98121.98
2018-12-23T04:24:28.742Z,98124.73
2018-12-23T04:30:36.890Z,98123.82
2018-12-23T04:33:48.364Z,98125.59
2018-12-23T04:39:56.127Z,98112.50
2018-12-23T05:00:35.911Z,98129.64
2018-12-23T05:03:47.702Z,98128.98
2018-12-23T05:19:59.291Z,98126.45
2018-12-23T05:23:09.298Z,98126.45
2018-12-23T05:26:20.708Z,98138.20
2018-12-23T05:29:32.294Z,98133.94
2018-12-23T05:32:23.966Z,98137.73
2018-12-23T05:50:45.500Z,98139.28
2018-12-23T05:56:59.294Z,98149.41
2018-12-23T06:00:09.292Z,98149.41
2018-12-23T06:03:00.973Z,98167.47
2018-12-23T06:09:28.657Z,98153.88
2018-12-23T06:12:20.433Z,98160.88
2018-12-23T06:15:11.804Z,98169.45
2018-12-23T06:18:23.388Z,98173.19
2018-12-23T06:21:34.956Z,98179.92
2018-12-23T06:24:46.745Z,98182.88
2018-12-23T06:34:04.300Z,98181.41
2018-12-23T06:37:14.300Z,98183.91
2018-12-23T06:40:25.962Z,98176.22
2018-12-23T06:51:20.913Z,98185.70
2018-12-23T06:54:32.434Z,98185.28
2018-12-23T07:12:26.292Z,98185.31
2018-12-23T07:15:16.304Z,98184.05
2018-12-23T07:21:45.295Z,98179.09
2018-12-23T07:34:28.902Z,98191.39
2018-12-23T07:41:10.419Z,98205.44
2018-12-23T07:44:00.435Z,98200.88
2018-12-23T08:03:12.965Z,98195.61
2018-12-23T08:06:24.483Z,98204.09
2018-12-23T08:09:34.310Z,98203.69
2018-12-23T08:12:05.699Z,98199.64
2018-12-23T08:21:12.381Z,98204.47
2018-12-23T08:24:02.313Z,98208.05
2018-12-23T08:27:12.297Z,98199.91
2018-12-23T08:33:53.618Z,98201.42
2018-12-23T08:40:20.303Z,98197.91
2018-12-23T08:43:31.454Z,98202.77
2018-12-23T08:46:02.872Z,98206.61
2018-12-23T08:52:24.439Z,98213.63
2018-12-23T08:58:44.315Z,98219.80
2018-12-23T09:01:34.304Z,98222.38
2018-12-23T09:07:40.778Z,98215.95
2018-12-23T09:10:52.541Z,98210.92
2018-12-23T09:13:45.749Z,98215.49
2018-12-23T09:26:19.717Z,98223.38
2018-12-23T09:35:58.893Z,98213.79
2018-12-23T09:38:50.428Z,98217.05
2018-12-23T09:41:40.366Z,98211.42
2018-12-23T09:44:30.337Z,98204.60
2018-12-23T09:47:14.299Z,98204.55
2018-12-23T09:50:05.704Z,98190.53
2018-12-23T09:53:17.297Z,98174.28
2018-12-23T09:55:50.107Z,98174.28
2018-12-23T09:58:22.921Z,98179.84
2018-12-23T10:00:55.324Z,98182.30
2018-12-23T10:03:27.788Z,98180.20
2018-12-23T10:06:01.299Z,98173.47
2018-12-23T10:08:34.012Z,98173.47
2018-12-23T10:11:06.790Z,98192.61
2018-12-23T10:13:39.435Z,98183.56
2018-12-23T10:16:12.290Z,98175.57
2018-12-23T10:18:44.953Z,98169.39
2018-12-23T10:21:17.858Z,98162.98
2018-12-23T10:23:50.791Z,98168.97
2018-12-23T10:26:23.733Z,98142.27
2018-12-23T10:28:56.417Z,98140.11
2018-12-23T10:31:28.921Z,98128.45
2018-12-23T10:34:01.687Z,98128.45
2018-12-23T10:36:34.405Z,98121.45
2018-12-23T10:39:08.445Z,98121.45
2018-12-23T10:41:41.291Z,98119.90
2018-12-23T10:44:12.299Z,98117.14
2018-12-23T10:46:43.804Z,98118.41
2018-12-23T10:49:17.416Z,98130.94
2018-12-23T10:51:50.126Z,98118.34
2018-12-23T10:54:22.722Z,98108.22
2018-12-23T10:56:55.517Z,98104.02
2018-12-23T10:59:28.010Z,98104.02
2018-12-23T11:02:00.964Z,98097.80
2018-12-23T11:04:33.418Z,98094.08
2018-12-23T11:07:05.014Z,98091.74
2018-12-23T11:09:37.898Z,98102.85
2018-12-23T11:12:10.415Z,98093.19
2018-12-23T11:14:42.917Z,98093.81
2018-12-23T11:17:15.404Z,98089.69
2018-12-23T11:19:48.324Z,98078.36
2018-12-23T11:22:19.626Z,98078.36
2018-12-23T11:24:52.289Z,98061.47
2018-12-23T11:27:24.946Z,98061.47
2018-12-23T11:29:57.724Z,98064.11
2018-12-23T11:32:30.317Z,98058.71
2018-12-23T11:35:01.625Z,98057.82
2018-12-23T11:37:34.752Z,98053.24
2018-12-23T11:40:08.142Z,98039.19
2018-12-23T11:42:41.050Z,98039.19
2018-12-23T11:45:13.868Z,98041.97
2018-12-23T11:47:46.679Z,98037.55
2018-12-23T11:50:17.866Z,98045.38
2018-12-23T11:52:50.679Z,98037.81
2018-12-23T11:55:23.125Z,98037.81
2018-12-23T11:57:55.942Z,98027.37
2018-12-23T12:00:28.767Z,98013.59
2018-12-23T12:03:01.368Z,98017.44
2018-12-23T12:05:33.909Z,98009.82
2018-12-23T12:08:06.460Z,98019.15
2018-12-23T12:10:38.938Z,98015.28
2018-12-23T12:16:34.939Z,98004.91
2018-12-23T12:22:33.413Z,98001.97
2018-12-23T12:25:24.959Z,97991.88
2018-12-23T12:27:57.944Z,97991.88
2018-12-23T12:30:30.351Z,97994.81
2018-12-23T12:33:01.714Z,98010.44
2018-12-23T12:35:34.322Z,97975.67
2018-12-23T12:38:06.947Z,97975.67
2018-12-23T12:40:39.737Z,97973.43
2018-12-23T12:43:12.341Z,97971.30
2018-12-23T12:45:44.793Z,97967.80
2018-12-23T12:48:17.426Z,97971.79
2018-12-23T12:53:38.850Z,97968.87
2018-12-23T12:56:50.215Z,97963.02
2018-12-23T12:59:41.462Z,97963.02
2018-12-23T13:02:14.293Z,97961.13
2018-12-23T13:09:47.116Z,97964.48
2018-12-23T13:12:19.958Z,97964.48
2018-12-23T13:15:55.823Z,97957.56
2018-12-23T13:18:47.278Z,97945.91
2018-12-23T13:21:19.955Z,97945.91
2018-12-23T13:23:53.073Z,97947.58
2018-12-23T13:26:25.691Z,97938.80
2018-12-23T13:28:58.462Z,97934.38
2018-12-23T13:31:29.866Z,97933.72
2018-12-23T13:34:02.700Z,97930.94
2018-12-23T13:36:35.444Z,97932.49
2018-12-23T13:39:12.115Z,97929.39
2018-12-23T13:41:55.303Z,97927.57
2018-12-23T13:45:02.489Z,97927.73
2018-12-23T13:48:51.138Z,97921.88
2018-12-23T13:52:20.254Z,97920.16
2018-12-23T13:55:37.914Z,97927.08
2018-12-23T13:58:57.946Z,97911.95
2018-12-23T14:02:28.413Z,97916.25
2018-12-23T14:05:18.298Z,97912.55
2018-12-23T14:08:25.668Z,97907.41
2018-12-23T14:11:57.279Z,97893.76
2018-12-23T14:14:29.946Z,97890.23
2018-12-23T14:17:03.275Z,97890.23
2018-12-23T14:19:35.783Z,97895.91
2018-12-23T14:22:08.937Z,97888.17
2018-12-23T14:24:41.619Z,97886.42
2018-12-23T14:27:14.410Z,97886.42
2018-12-23T14:29:47.333Z,97893.59
2018-12-23T14:32:18.859Z,97894.86
2018-12-23T14:34:51.657Z,97879.86
2018-12-23T14:37:24.298Z,97886.69
2018-12-23T14:39:55.695Z,97886.69
2018-12-23T14:42:28.286Z,97886.69
2018-12-23T14:44:59.577Z,97883.05
2018-12-23T14:47:32.362Z,97875.68
2018-12-23T14:50:03.860Z,97875.68
2018-12-23T14:52:36.715Z,97876.00
2018-12-23T14:55:09.665Z,97875.12
2018-12-23T14:57:42.410Z,97879.35
2018-12-23T15:00:15.089Z,97863.65
2018-12-23T15:02:47.785Z,97866.55
2018-12-23T15:05:23.705Z,97864.36
2018-12-23T15:07:56.723Z,97864.36
2018-12-23T15:10:29.461Z,97855.33
2018-12-23T15:13:00.864Z,97858.34
2018-12-23T15:15:33.777Z,97861.72
2018-12-23T15:18:06.743Z,97853.92
2018-12-23T15:20:39.372Z,97850.52
2018-12-23T15:23:11.947Z,97842.53
2018-12-23T15:25:44.755Z,97836.53
2018-12-23T15:28:17.406Z,97829.97
2018-12-23T15:30:50.105Z,97828.19
2018-12-23T15:33:21.858Z,97826.35
2018-12-23T15:35:54.754Z,97832.53
2018-12-23T15:38:29.513Z,97832.53
2018-12-23T15:41:02.292Z,97818.58
2018-12-23T15:43:33.544Z,97818.58
2018-12-23T15:49:30.444Z,97818.54
2018-12-23T15:52:02.303Z,97811.48
2018-12-23T15:54:33.872Z,97808.69
2018-12-23T16:00:41.479Z,97797.22
2018-12-23T16:03:14.337Z,97782.25
2018-12-23T16:05:47.291Z,97782.25
2018-12-23T16:08:19.891Z,97778.04
2018-12-23T16:10:52.716Z,97776.09
2018-12-23T16:13:25.462Z,97768.27
2018-12-23T16:15:58.369Z,97750.25
2018-12-23T16:18:31.141Z,97750.25
2018-12-23T16:21:04.089Z,97748.09
2018-12-23T16:23:36.953Z,97739.94
2018-12-23T16:26:09.710Z,97736.29
2018-12-23T16:28:42.711Z,97729.36
2018-12-23T16:31:15.701Z,97726.77
2018-12-23T16:33:48.332Z,97725.55
2018-12-23T16:36:19.634Z,97725.75
2018-12-23T16:38:52.368Z,97717.89
2018-12-23T16:41:25.117Z,97713.43
2018-12-23T16:43:57.766Z,97700.97
2018-12-23T16:46:30.429Z,97690.45
2018-12-23T16:49:03.279Z,97683.56
2018-12-23T16:51:34.423Z,97682.49
2018-12-23T16:54:07.280Z,97682.49
2018-12-23T16:56:38.386Z,97670.66
2018-12-23T16:59:09.813Z,97675.56
2018-12-23T17:01:42.424Z,97685.62
2018-12-23T17:04:15.297Z,97672.31
2018-12-23T17:06:46.335Z,97672.31
2018-12-23T17:09:19.085Z,97686.74
2018-12-23T17:11:52.112Z,97691.80
2018-12-23T17:15:04.455Z,97692.27
2018-12-23T17:17:37.334Z,97687.52
2018-12-23T17:20:13.786Z,97687.52
2018-12-23T17:22:46.511Z,97682.94
2018-12-23T17:25:19.162Z,97682.49
2018-12-23T17:27:51.959Z,97676.83
2018-12-23T17:30:24.709Z,97677.92
2018-12-23T17:32:57.709Z,97672.53
2018-12-23T17:35:30.412Z,97666.13
2018-12-23T17:38:03.115Z,97660.61
2018-12-23T17:40:35.949Z,97667.98
2018-12-23T17:43:08.697Z,97653.59
2018-12-23T17:45:41.440Z,97642.89
2018-12-23T17:48:15.778Z,97641.67
2018-12-23T17:50:48.685Z,97638.47
2018-12-23T17:53:21.480Z,97635.55
2018-12-23T17:55:54.148Z,97628.50
2018-12-23T17:58:25.446Z,97627.15
2018-12-23T18:00:58.446Z,97619.33
2018-12-23T18:03:31.299Z,97619.33
2018-12-23T18:06:04.084Z,97626.83
2018-12-23T18:08:35.874Z,97627.15
2018-12-23T18:11:08.705Z,97608.75
2018-12-23T18:13:41.428Z,97608.75
2018-12-23T18:16:14.378Z,97598.33
2018-12-23T18:18:46.953Z,97598.33
2018-12-23T18:21:19.713Z,97604.94
2018-12-23T18:23:52.718Z,97599.27
2018-12-23T18:26:25.479Z,97582.72
2018-12-23T18:28:58.288Z,97582.56
2018-12-23T18:31:29.713Z,97582.56
2018-12-23T18:34:02.785Z,97561.89
2018-12-23T18:36:35.692Z,97556.52
2018-12-23T18:39:10.366Z,97560.03
2018-12-23T18:41:43.094Z,97567.72
2018-12-23T18:44:16.097Z,97567.72
2018-12-23T18:46:48.724Z,97568.63
2018-12-23T18:49:21.708Z,97571.67
2018-12-23T18:51:54.691Z,97558.80
2018-12-23T18:54:27.448Z,97553.76
2018-12-23T18:57:09.951Z,97547.17
2018-12-23T18:59:47.725Z,97547.17
2018-12-23T19:02:36.471Z,97544.11
2018-12-23T19:05:09.368Z,97546.69
2018-12-23T19:23:44.728Z,97512.55
2018-12-23T19:27:05.742Z,97504.45
2018-12-23T19:33:56.280Z,97498.92
2018-12-23T19:37:04.585Z,97498.92
2018-12-23T19:40:16.386Z,97498.14
2018-12-23T19:43:45.122Z,97496.30
2018-12-23T19:47:13.941Z,97496.30
